Time;durP1;ratioP1;P1;durP2;ratioP2;P2;SDS_P1;SDS_P2;PMS_P1;PMS_P2;Temp;Humidity;BMP_temperature;BMP_pressure;BME280_temperature;BME280_humidity;BME280_pressure;Samples;Min_cycle;Max_cycle;Signal;HPM_P1;HPM_P2
2022/09/02 00:01:15;;;;;;;;;;;;;;;11.02;68.30;99590.23;1638991;86;20705;-66
2022/09/02 00:03:42;;;;;;;;;;;;;;;10.98;68.30;99593.72;1602477;87;20124;-66
2022/09/02 00:06:08;;;;;;;;;;;;;;;10.97;68.29;99590.75;1611077;87;20156;-66
2022/09/02 00:08:35;;;;;;;;;;;;;;;10.94;68.29;99591.08;1611901;87;21237;-66
2022/09/02 00:11:04;;;;;;;;;;;;;;;10.92;68.38;99590.92;1607988;87;20493;-66
2022/09/02 00:13:33;;;;;;;;;;;;;;;10.86;68.47;99594.25;1604940;87;20181;-65
2022/09/02 00:16:00;;;;;;;;;;;;;;;10.80;68.58;99589.10;1608455;87;20282;-64
2022/09/02 00:18:26;;;;;;;;;;;;;;;10.75;68.81;99595.44;1610968;87;20131;-66
2022/09/02 00:20:54;;;;;;;;;;;;;;;10.71;68.91;99595.45;1610182;87;21152;-66
2022/09/02 00:23:20;;;;;;;;;;;;;;;10.67;69.08;99594.11;1608076;87;20426;-65
2022/09/02 00:25:47;;;;;;;;;;;;;;;10.64;69.10;99592.30;1610046;87;20212;-64
2022/09/02 00:28:14;;;;;;;;;;;;;;;10.60;69.13;99596.28;1607879;87;20180;-65
2022/09/02 00:30:41;;;;;;;;;;;;;;;10.57;69.36;99593.45;1612660;87;20136;-65
2022/09/02 00:33:07;;;;;;;;;;;;;;;10.56;69.55;99594.44;1606166;87;21115;-64
2022/09/02 00:35:34;;;;;;;;;;;;;;;10.59;69.78;99590.61;1599045;87;20480;-64
2022/09/02 00:38:00;;;;;;;;;;;;;;;10.60;69.83;99589.14;1585749;89;20188;-64
2022/09/02 00:40:27;;;;;;;;;;;;;;;10.62;69.76;99593.78;1584708;88;20493;-64
2022/09/02 00:42:53;;;;;;;;;;;;;;;10.62;69.49;99596.44;1582415;88;20155;-65
2022/09/02 00:45:20;;;;;;;;;;;;;;;10.60;69.26;99594.45;1582881;89;21788;-65
2022/09/02 00:47:49;;;;;;;;;;;;;;;10.60;69.26;99599.78;1612150;87;20108;-64
2022/09/02 00:50:16;;;;;;;;;;;;;;;10.64;69.34;99597.09;1607879;87;20166;-64
2022/09/02 00:52:48;;;;;;;;;;;;;;;10.70;69.24;99595.11;1612017;87;20147;-64
2022/09/02 00:55:17;;;;;;;;;;;;;;;10.70;69.05;99596.44;1613764;87;20096;-64
2022/09/02 00:57:55;;;;;;;;;;;;;;;10.68;68.89;99598.45;1614232;87;21276;-65
2022/09/02 01:00:27;;;;;;;;;;;;;;;10.67;69.13;99599.92;1612243;87;20189;-65
2022/09/02 01:02:56;;;;;;;;;;;;;;;10.67;69.10;99599.92;1612327;87;20491;-64
2022/09/02 01:05:23;;;;;;;;;;;;;;;10.60;68.90;99602.44;1617876;87;20119;-64
2022/09/02 01:07:50;;;;;;;;;;;;;;;10.53;68.87;99610.77;1611891;87;20177;-64
2022/09/02 01:10:20;;;;;;;;;;;;;;;10.46;69.01;99605.27;1613328;87;21178;-64
2022/09/02 01:12:46;;;;;;;;;;;;;;;10.41;69.16;99608.08;1609198;87;20108;-65
2022/09/02 01:15:15;;;;;;;;;;;;;;;10.37;68.96;99612.92;1606593;87;20426;-66
2022/09/02 01:17:44;;;;;;;;;;;;;;;10.28;68.65;99611.23;1612573;87;20096;-64
2022/09/02 01:20:13;;;;;;;;;;;;;;;10.17;68.55;99606.73;1615904;87;20133;-68
2022/09/02 01:22:41;;;;;;;;;;;;;;;10.00;68.69;99612.50;1611864;87;21194;-66
2022/09/02 01:25:13;;;;;;;;;;;;;;;9.87;68.86;99614.31;1613081;87;20152;-69
2022/09/02 01:27:41;;;;;;;;;;;;;;;9.78;69.15;99615.27;1613550;87;20104;-67
2022/09/02 01:30:10;;;;;;;;;;;;;;;9.73;69.36;99618.07;1615741;87;20447;-67
2022/09/02 01:32:36;;;;;;;;;;;;;;;9.68;69.62;99617.72;1611384;87;20460;-65
2022/09/02 01:35:03;;;;;;;;;;;;;;;9.65;69.81;99618.05;1610958;87;21214;-67
2022/09/02 01:37:31;;;;;;;;;;;;;;;9.61;69.92;99618.88;1597484;88;20219;-66
2022/09/02 01:39:57;;;;;;;;;;;;;;;9.56;70.11;99617.20;1598627;88;20157;-68
2022/09/02 01:42:24;;;;;;;;;;;;;;;9.52;70.38;99618.50;1601504;88;20124;-67
2022/09/02 01:44:52;;;;;;;;;;;;;;;9.49;70.68;99627.30;1599377;88;20158;-67
2022/09/02 01:47:22;;;;;;;;;;;;;;;9.46;70.91;99628.45;1598256;88;21775;-69
2022/09/02 01:49:49;;;;;;;;;;;;;;;9.46;71.11;99629.78;1600288;88;20101;-66
2022/09/02 01:52:16;;;;;;;;;;;;;;;9.44;71.15;99623.77;1599937;88;20199;-63
2022/09/02 01:54:43;;;;;;;;;;;;;;;9.41;71.22;99630.72;1600190;88;20431;-65
2022/09/02 01:57:10;;;;;;;;;;;;;;;9.39;71.43;99634.04;1599767;88;20153;-67
2022/09/02 01:59:37;;;;;;;;;;;;;;;9.39;71.56;99634.53;1599472;88;21175;-65
2022/09/02 02:02:04;;;;;;;;;;;;;;;9.37;71.62;99633.86;1600612;88;20177;-68
2022/09/02 02:04:32;;;;;;;;;;;;;;;9.35;71.83;99636.69;1596869;88;20204;-66
2022/09/02 02:06:59;;;;;;;;;;;;;;;9.35;71.88;99633.20;1602372;88;21013;-66
2022/09/02 02:09:25;;;;;;;;;;;;;;;9.34;71.99;99642.98;1599722;88;20153;-65
2022/09/02 02:11:52;;;;;;;;;;;;;;;9.31;72.13;99637.49;1599258;88;21168;-67
2022/09/02 02:14:18;;;;;;;;;;;;;;;9.29;72.20;99640.81;1598581;88;20136;-67
2022/09/02 02:16:46;;;;;;;;;;;;;;;9.28;72.33;99642.31;1581032;89;20249;-65
2022/09/02 02:19:13;;;;;;;;;;;;;;;9.25;72.57;99638.63;1578763;89;20113;-68
2022/09/02 02:21:39;;;;;;;;;;;;;;;9.23;73.11;99639.27;1582547;89;20187;-64
2022/09/02 02:24:07;;;;;;;;;;;;;;;9.20;73.42;99633.78;1580782;89;21168;-63
2022/09/02 02:26:34;;;;;;;;;;;;;;;9.16;73.29;99635.58;1580759;89;20125;-64
2022/09/02 02:29:01;;;;;;;;;;;;;;;9.16;73.71;99638.23;1580325;89;20210;-64
2022/09/02 02:31:28;;;;;;;;;;;;;;;9.20;74.05;99627.14;1578391;89;20218;-64
2022/09/02 02:33:54;;;;;;;;;;;;;;;9.21;73.96;99634.61;1612675;87;20100;-64
2022/09/02 02:36:21;;;;;;;;;;;;;;;9.21;74.18;99632.80;1614002;86;21165;-66
2022/09/02 02:38:48;;;;;;;;;;;;;;;9.21;74.19;99634.13;1612680;87;20173;-65
2022/09/02 02:41:14;;;;;;;;;;;;;;;9.23;74.45;99638.77;1614715;87;20440;-67
2022/09/02 02:43:41;;;;;;;;;;;;;;;9.26;74.43;99629.66;1612032;87;20132;-64
2022/09/02 02:46:08;;;;;;;;;;;;;;;9.24;74.08;99632.97;1610765;87;20120;-65
2022/09/02 02:48:35;;;;;;;;;;;;;;;9.22;73.74;99633.64;1613591;87;21177;-64
2022/09/02 02:51:02;;;;;;;;;;;;;;;9.21;73.59;99633.28;1614673;87;20415;-66
2022/09/02 02:53:30;;;;;;;;;;;;;;;9.16;73.48;99623.15;1612685;87;20144;-66
2022/09/02 02:55:57;;;;;;;;;;;;;;;9.13;73.50;99622.13;1613067;87;20168;-63
2022/09/02 02:58:24;;;;;;;;;;;;;;;9.10;73.20;99625.59;1611334;87;20143;-66
2022/09/02 03:00:50;;;;;;;;;;;;;;;9.03;72.61;99621.91;1611288;87;21173;-66
2022/09/02 03:03:18;;;;;;;;;;;;;;;8.93;72.27;99623.84;1617033;87;20097;-64
2022/09/02 03:05:46;;;;;;;;;;;;;;;8.86;72.31;99628.95;1611289;87;20172;-67
2022/09/02 03:08:13;;;;;;;;;;;;;;;8.80;72.07;99623.41;1610798;87;20124;-64
2022/09/02 03:10:42;;;;;;;;;;;;;;;8.75;72.19;99633.66;1612632;87;20084;-68
2022/09/02 03:13:10;;;;;;;;;;;;;;;8.72;72.25;99635.30;1613354;87;21180;-68
2022/09/02 03:15:38;;;;;;;;;;;;;;;8.68;72.39;99630.81;1604889;87;20442;-67
2022/09/02 03:18:06;;;;;;;;;;;;;;;8.67;72.96;99630.45;1611618;87;20359;-65
2022/09/02 03:20:32;;;;;;;;;;;;;;;8.68;73.42;99633.46;1613856;87;20167;-64
2022/09/02 03:23:02;;;;;;;;;;;;;;;8.71;73.43;99637.11;1608046;87;20104;-65
2022/09/02 03:25:30;;;;;;;;;;;;;;;8.73;73.49;99634.31;1610555;87;20580;-65
2022/09/02 03:27:57;;;;;;;;;;;;;;;8.68;73.16;99639.58;1612842;87;20124;-65
2022/09/02 03:30:25;;;;;;;;;;;;;;;8.62;72.78;99640.70;1611788;87;20125;-65
2022/09/02 03:32:53;;;;;;;;;;;;;;;8.52;72.54;99643.45;1611872;87;20136;-65
2022/09/02 03:35:21;;;;;;;;;;;;;;;8.47;72.44;99648.34;1612920;87;20152;-65
2022/09/02 03:37:48;;;;;;;;;;;;;;;8.47;72.75;99647.54;1615632;87;22083;-65
2022/09/02 03:40:17;;;;;;;;;;;;;;;8.48;72.92;99649.19;1615551;86;20432;-65
2022/09/02 03:42:45;;;;;;;;;;;;;;;8.44;72.41;99659.28;1617757;86;20122;-66
2022/09/02 03:45:14;;;;;;;;;;;;;;;8.45;72.41;99663.58;1617906;86;20226;-65
2022/09/02 03:47:49;;;;;;;;;;;;;;;8.48;72.41;99662.45;1619340;86;21527;-65
2022/09/02 03:50:11;;;;;;;;;;;;;;;8.52;72.40;99662.01;1615682;86;21174;-64
2022/09/02 03:52:38;;;;;;;;;;;;;;;8.57;72.20;99655.75;1617553;86;20092;-65
2022/09/02 03:55:05;;;;;;;;;;;;;;;8.60;72.22;99664.70;1619334;86;20467;-64
2022/09/02 03:57:34;;;;;;;;;;;;;;;8.67;72.35;99669.75;1616609;86;20187;-64
2022/09/02 04:00:03;;;;;;;;;;;;;;;8.77;72.48;99667.00;1616771;86;20170;-65
2022/09/02 04:02:30;;;;;;;;;;;;;;;8.90;72.69;99671.90;1617647;86;22031;-64
2022/09/02 04:04:57;;;;;;;;;;;;;;;9.05;72.76;99671.18;1618271;86;20125;-64
2022/09/02 04:07:23;;;;;;;;;;;;;;;9.26;72.75;99670.80;1616909;86;20120;-65
2022/09/02 04:09:51;;;;;;;;;;;;;;;9.54;72.50;99671.47;1615553;86;20148;-64
2022/09/02 04:12:18;;;;;;;;;;;;;;;9.86;72.01;99675.56;1616168;86;20107;-64
2022/09/02 04:14:45;;;;;;;;;;;;;;;10.29;71.46;99678.06;1611445;86;21806;-64
2022/09/02 04:17:12;;;;;;;;;;;;;;;10.99;70.43;99677.92;1619473;86;20147;-65
2022/09/02 04:19:39;;;;;;;;;;;;;;;11.84;68.69;99682.19;1619282;86;20145;-65
2022/09/02 04:22:07;;;;;;;;;;;;;;;12.72;66.52;99678.17;1614730;87;20251;-65
2022/09/02 04:24:35;;;;;;;;;;;;;;;13.55;63.74;99678.89;1617152;86;20441;-67
2022/09/02 04:27:02;;;;;;;;;;;;;;;14.20;60.71;99675.73;1618683;86;21232;-63
2022/09/02 04:29:30;;;;;;;;;;;;;;;14.72;59.11;99683.50;1616054;86;20103;-68
2022/09/02 04:31:57;;;;;;;;;;;;;;;15.32;57.64;99684.81;1617472;86;20128;-67
2022/09/02 04:34:24;;;;;;;;;;;;;;;16.04;55.81;99686.07;1616024;86;20121;-64
2022/09/02 04:36:51;;;;;;;;;;;;;;;16.72;53.84;99676.16;1614278;86;20140;-64
2022/09/02 04:39:18;;;;;;;;;;;;;;;17.45;52.11;99675.11;1612703;87;21853;-65
2022/09/02 04:41:45;;;;;;;;;;;;;;;18.18;50.17;99677.91;1611822;87;20112;-63
2022/09/02 04:44:12;;;;;;;;;;;;;;;18.79;48.34;99676.86;1614308;87;20117;-66
2022/09/02 04:46:40;;;;;;;;;;;;;;;19.43;46.91;99688.68;1612813;87;20108;-67
2022/09/02 04:49:10;;;;;;;;;;;;;;;19.95;45.05;99683.76;1611841;87;20449;-65
2022/09/02 04:51:38;;;;;;;;;;;;;;;20.14;44.28;99682.70;1615771;87;22185;-67
2022/09/02 04:54:06;;;;;;;;;;;;;;;20.39;43.87;99683.98;1613644;87;20117;-66
2022/09/02 04:56:34;;;;;;;;;;;;;;;20.53;43.67;99686.27;1615640;87;20165;-64
2022/09/02 04:59:02;;;;;;;;;;;;;;;20.90;42.58;99689.14;1613072;87;20141;-67
2022/09/02 05:01:31;;;;;;;;;;;;;;;21.30;41.18;99687.98;1610643;87;20104;-69
2022/09/02 05:03:58;;;;;;;;;;;;;;;21.49;39.06;99685.98;1610061;87;20786;-67
2022/09/02 05:06:26;;;;;;;;;;;;;;;21.38;38.54;99683.57;1614697;87;20135;-67
2022/09/02 05:08:58;;;;;;;;;;;;;;;21.32;38.30;99687.76;1611333;87;20235;-64
2022/09/02 05:11:28;;;;;;;;;;;;;;;21.21;38.31;99692.62;1612551;87;20459;-64
2022/09/02 05:13:56;;;;;;;;;;;;;;;21.34;38.38;99687.82;1614497;87;20489;-64
2022/09/02 05:16:29;;;;;;;;;;;;;;;21.63;37.90;99682.52;1611532;87;21179;-65
2022/09/02 05:18:56;;;;;;;;;;;;;;;21.94;37.30;99683.50;1613292;87;20113;-64
2022/09/02 05:21:24;;;;;;;;;;;;;;;22.24;36.50;99687.38;1612666;87;20171;-64
2022/09/02 05:23:51;;;;;;;;;;;;;;;22.50;36.16;99686.81;1614460;87;20092;-65
2022/09/02 05:26:17;;;;;;;;;;;;;;;22.81;35.54;99690.40;1612308;87;20451;-65
2022/09/02 05:28:44;;;;;;;;;;;;;;;23.12;35.01;99687.67;1612272;87;21239;-66
2022/09/02 05:31:13;;;;;;;;;;;;;;;23.47;34.48;99696.39;1610739;87;20096;-65
2022/09/02 05:33:41;;;;;;;;;;;;;;;24.01;33.81;99695.25;1589770;87;20148;-67
2022/09/02 05:36:11;;;;;;;;;;;;;;;24.73;32.70;99695.30;1610704;87;20199;-65
2022/09/02 05:38:39;;;;;;;;;;;;;;;25.28;31.58;99692.83;1611625;87;20146;-66
2022/09/02 05:41:08;;;;;;;;;;;;;;;25.73;30.61;99699.42;1611768;87;21162;-64
2022/09/02 05:43:36;;;;;;;;;;;;;;;26.04;30.33;99701.80;1615200;87;20108;-67
2022/09/02 05:46:05;;;;;;;;;;;;;;;26.75;29.76;99696.03;1615001;87;20100;-67
2022/09/02 05:51:19;;;;;;;;;;;;;;;28.65;27.29;99695.22;1613835;87;20204;-66
2022/09/02 05:53:45;;;;;;;;;;;;;;;29.16;26.31;99697.84;1613648;87;21132;-67
2022/09/02 05:56:13;;;;;;;;;;;;;;;29.25;25.79;99699.45;1612103;87;20100;-69
2022/09/02 05:58:39;;;;;;;;;;;;;;;29.46;25.61;99702.83;1612569;87;20126;-67
2022/09/02 06:01:08;;;;;;;;;;;;;;;30.03;25.33;99700.06;1587555;89;20372;-71
2022/09/02 06:03:34;;;;;;;;;;;;;;;30.93;24.10;99699.42;1612998;87;20422;-65
2022/09/02 06:06:01;;;;;;;;;;;;;;;31.66;23.56;99696.83;1615331;87;21163;-64
2022/09/02 06:08:28;;;;;;;;;;;;;;;32.40;22.24;99700.33;1612095;87;20148;-67
2022/09/02 06:10:55;;;;;;;;;;;;;;;32.64;21.71;99697.36;1611507;87;20091;-67
2022/09/02 06:13:22;;;;;;;;;;;;;;;32.91;20.87;99700.84;1613880;87;20221;-66
2022/09/02 06:15:51;;;;;;;;;;;;;;;33.08;20.97;99698.00;1613317;87;20193;-66
2022/09/02 06:18:19;;;;;;;;;;;;;;;33.52;20.29;99702.11;1611286;87;22197;-67
2022/09/02 06:20:47;;;;;;;;;;;;;;;33.77;20.06;99706.15;1611400;87;20511;-69
2022/09/02 06:23:16;;;;;;;;;;;;;;;33.98;19.68;99696.17;1614461;87;20220;-68
2022/09/02 06:25:44;;;;;;;;;;;;;;;34.36;19.58;99699.27;1611128;87;20210;-70
2022/09/02 06:28:10;;;;;;;;;;;;;;;34.79;19.15;99691.04;1613325;87;20154;-67
2022/09/02 06:30:41;;;;;;;;;;;;;;;35.24;18.59;99706.18;1610995;87;21160;-69
2022/09/02 06:33:08;;;;;;;;;;;;;;;35.43;17.99;99697.53;1612087;87;20995;-71
2022/09/02 06:35:37;;;;;;;;;;;;;;;35.51;18.08;99693.93;1613569;87;20211;-68
2022/09/02 06:38:03;;;;;;;;;;;;;;;35.87;18.12;99701.25;1610655;87;20163;-69
2022/09/02 06:40:30;;;;;;;;;;;;;;;36.57;17.55;99699.77;1611348;87;20149;-69
2022/09/02 06:42:57;;;;;;;;;;;;;;;37.10;16.77;99702.04;1615777;87;21085;-68
2022/09/02 06:45:30;;;;;;;;;;;;;;;37.54;16.48;99709.41;1610505;87;20104;-70
2022/09/02 06:47:58;;;;;;;;;;;;;;;37.72;15.93;99705.28;1606096;87;20145;-69
2022/09/02 06:50:25;;;;;;;;;;;;;;;37.52;15.99;99704.17;1616941;87;20124;-70
2022/09/02 06:52:52;;;;;;;;;;;;;;;37.21;16.26;99706.59;1616513;87;20154;-68
2022/09/02 06:55:19;;;;;;;;;;;;;;;37.37;16.33;99697.87;1615648;87;21157;-68
2022/09/02 06:57:46;;;;;;;;;;;;;;;37.69;16.14;99701.22;1614163;87;20509;-69
2022/09/02 07:00:15;;;;;;;;;;;;;;;37.80;15.94;99702.16;1612633;87;20105;-69
2022/09/02 07:02:42;;;;;;;;;;;;;;;37.79;15.85;99708.86;1614131;87;20084;-67
2022/09/02 07:05:14;;;;;;;;;;;;;;;38.21;15.70;99701.41;1636761;87;20088;-65
2022/09/02 07:07:42;;;;;;;;;;;;;;;38.59;15.34;99705.19;1620246;87;21240;-66
2022/09/02 07:10:12;;;;;;;;;;;;;;;38.91;14.91;99704.80;1618629;87;20102;-67
2022/09/02 07:12:39;;;;;;;;;;;;;;;38.95;14.67;99710.47;1636735;87;20178;-69
2022/09/02 07:15:09;;;;;;;;;;;;;;;38.92;14.71;99707.00;1629904;87;21179;-67
2022/09/02 07:17:39;;;;;;;;;;;;;;;39.25;14.63;99706.20;1636761;87;20141;-66
2022/09/02 07:20:08;;;;;;;;;;;;;;;39.45;14.18;99712.11;1622348;87;21138;-68
2022/09/02 07:22:37;;;;;;;;;;;;;;;39.50;14.26;99705.70;1602949;87;20168;-66
2022/09/02 07:25:07;;;;;;;;;;;;;;;39.57;14.00;99704.29;1626954;87;20425;-68
2022/09/02 07:27:35;;;;;;;;;;;;;;;39.60;14.15;99707.17;1614176;87;20094;-66
2022/09/02 07:30:03;;;;;;;;;;;;;;;39.82;13.65;99712.14;1620435;87;20123;-67
2022/09/02 07:32:30;;;;;;;;;;;;;;;39.54;13.46;99709.98;1613722;87;21180;-67
2022/09/02 07:34:57;;;;;;;;;;;;;;;38.96;14.01;99712.88;1636841;87;20133;-66
2022/09/02 07:37:23;;;;;;;;;;;;;;;39.04;13.98;99715.29;1611474;87;20084;-67
2022/09/02 07:39:52;;;;;;;;;;;;;;;39.11;14.06;99712.13;1603094;87;20092;-67
2022/09/02 07:42:19;;;;;;;;;;;;;;;39.34;13.94;99710.45;1603100;87;20104;-66
2022/09/02 07:44:45;;;;;;;;;;;;;;;39.36;13.81;99705.34;1612621;87;21101;-66
2022/09/02 07:47:12;;;;;;;;;;;;;;;39.55;13.96;99713.01;1622564;87;20117;-66
2022/09/02 07:49:39;;;;;;;;;;;;;;;39.99;13.52;99713.20;1611670;87;20169;-66
2022/09/02 07:52:06;;;;;;;;;;;;;;;40.12;13.00;99714.52;1624554;87;20136;-69
2022/09/02 07:54:33;;;;;;;;;;;;;;;40.07;13.21;99710.03;1611568;87;20104;-66
2022/09/02 07:56:59;;;;;;;;;;;;;;;39.97;13.13;99705.77;1611557;87;21974;-66
2022/09/02 07:59:26;;;;;;;;;;;;;;;40.06;12.96;99704.22;1611866;87;20092;-65
2022/09/02 08:01:53;;;;;;;;;;;;;;;40.19;12.64;99704.34;1628140;87;20104;-66
2022/09/02 08:04:23;;;;;;;;;;;;;;;39.94;12.85;99703.72;1626945;87;20082;-66
2022/09/02 08:06:52;;;;;;;;;;;;;;;40.05;12.98;99707.59;1613285;87;20092;-69
2022/09/02 08:09:18;;;;;;;;;;;;;;;40.63;12.50;99701.63;1611683;87;21119;-66
2022/09/02 08:11:47;;;;;;;;;;;;;;;40.93;12.08;99699.70;1611647;87;20117;-67
2022/09/02 08:14:16;;;;;;;;;;;;;;;40.89;12.19;99703.80;1611611;87;20120;-65
2022/09/02 08:16:45;;;;;;;;;;;;;;;41.22;11.36;99700.50;1611325;87;20458;-64
2022/09/02 08:19:12;;;;;;;;;;;;;;;41.30;11.37;99707.03;1611692;87;20167;-67
2022/09/02 08:21:39;;;;;;;;;;;;;;;41.65;11.38;99703.52;1611559;87;21138;-66
2022/09/02 08:24:05;;;;;;;;;;;;;;;42.25;10.77;99709.59;1611567;87;20080;-65
2022/09/02 08:26:35;;;;;;;;;;;;;;;42.88;10.25;99703.31;1611667;87;20438;-66
2022/09/02 08:29:00;;;;;;;;;;;;;;;43.12;9.90;99709.05;1623950;87;20130;-67
2022/09/02 08:31:26;;;;;;;;;;;;;;;43.42;9.31;99702.80;1610658;87;20124;-67
2022/09/02 08:33:52;;;;;;;;;;;;;;;43.68;9.07;99706.05;1612495;87;21160;-66
2022/09/02 08:36:19;;;;;;;;;;;;;;;43.85;9.04;99697.05;1612338;87;20430;-71
2022/09/02 08:38:46;;;;;;;;;;;;;;;44.07;9.08;99697.42;1612659;87;20446;-67
2022/09/02 08:41:16;;;;;;;;;;;;;;;44.48;8.80;99693.32;1625632;87;20106;-66
2022/09/02 08:43:43;;;;;;;;;;;;;;;44.66;8.25;99695.69;1619783;87;20090;-66
2022/09/02 08:46:15;;;;;;;;;;;;;;;44.91;8.15;99693.01;1635518;87;21822;-66
2022/09/02 08:48:48;;;;;;;;;;;;;;;44.82;8.05;99692.55;1636506;87;20177;-66
2022/09/02 08:51:19;;;;;;;;;;;;;;;44.65;8.21;99691.26;1636057;87;20412;-67
2022/09/02 08:53:51;;;;;;;;;;;;;;;44.31;8.34;99689.83;1633658;87;20456;-67
2022/09/02 08:56:17;;;;;;;;;;;;;;;44.05;8.36;99692.22;1619148;87;20129;-67
2022/09/02 08:58:47;;;;;;;;;;;;;;;43.63;8.45;99691.81;1633472;87;21247;-68
2022/09/02 09:01:20;;;;;;;;;;;;;;;42.91;9.09;99687.17;1617224;87;20102;-67
2022/09/02 09:04:07;;;;;;;;;;;;;;;42.79;9.40;99691.59;1623219;87;20127;-66
2022/09/02 09:06:55;;;;;;;;;;;;;;;43.04;9.01;99695.56;1636365;87;20437;-68
2022/09/02 09:09:26;;;;;;;;;;;;;;;43.45;9.03;99688.84;1636894;87;20118;-66
2022/09/02 09:12:14;;;;;;;;;;;;;;;43.89;8.55;99694.48;1622855;87;21284;-67
2022/09/02 09:14:45;;;;;;;;;;;;;;;44.03;8.51;99687.60;1624263;87;37352;-67
2022/09/02 09:17:26;;;;;;;;;;;;;;;44.45;8.41;99684.31;1631096;87;20248;-66
2022/09/02 09:19:54;;;;;;;;;;;;;;;44.69;8.08;99685.05;1636522;87;20412;-68
2022/09/02 09:22:25;;;;;;;;;;;;;;;44.72;8.39;99682.87;1636566;87;20866;-68
2022/09/02 09:24:51;;;;;;;;;;;;;;;44.74;8.37;99687.48;1621608;87;21744;-66
2022/09/02 09:27:19;;;;;;;;;;;;;;;44.80;8.22;99687.32;1634106;87;20130;-66
2022/09/02 09:29:47;;;;;;;;;;;;;;;45.04;8.04;99678.02;1624377;87;20110;-68
2022/09/02 09:32:29;;;;;;;;;;;;;;;44.99;7.81;99677.00;1635238;87;20449;-66
2022/09/02 09:35:00;;;;;;;;;;;;;;;44.73;7.90;99676.07;1636717;87;20105;-66
2022/09/02 09:37:29;;;;;;;;;;;;;;;44.52;7.85;99673.16;1618505;87;21175;-66
2022/09/02 09:39:55;;;;;;;;;;;;;;;44.17;8.11;99665.89;1615753;86;20104;-66
2022/09/02 09:42:35;;;;;;;;;;;;;;;43.93;8.41;99667.31;1607907;86;20444;-64
2022/09/02 09:45:23;;;;;;;;;;;;;;;43.84;8.55;99662.62;1614316;87;20135;-66
2022/09/02 09:48:11;;;;;;;;;;;;;;;43.87;8.52;99667.45;1621613;86;20157;-67
2022/09/02 09:50:37;;;;;;;;;;;;;;;43.59;8.40;99665.20;1609716;86;21148;-67
2022/09/02 09:53:16;;;;;;;;;;;;;;;43.15;8.46;99667.70;1616166;87;20176;-67
2022/09/02 09:55:53;;;;;;;;;;;;;;;42.81;8.62;99669.67;1609192;87;20155;-68
2022/09/02 09:58:21;;;;;;;;;;;;;;;42.42;9.04;99675.49;1620124;86;20422;-66
2022/09/02 10:00:47;;;;;;;;;;;;;;;42.28;9.08;99673.09;1623501;86;20455;-66
2022/09/02 10:03:21;;;;;;;;;;;;;;;41.98;9.27;99665.22;1593335;87;21174;-68
2022/09/02 10:05:48;;;;;;;;;;;;;;;41.41;9.54;99662.80;1616935;87;20547;-67
2022/09/02 10:08:18;;;;;;;;;;;;;;;41.09;9.62;99665.56;1594635;86;20089;-66
2022/09/02 10:11:02;;;;;;;;;;;;;;;40.81;9.90;99665.75;1616644;87;20172;-65
2022/09/02 10:13:30;;;;;;;;;;;;;;;40.52;10.26;99659.34;1616394;86;20108;-65
2022/09/02 10:16:19;;;;;;;;;;;;;;;40.45;10.34;99661.95;1616237;87;21248;-64
2022/09/02 10:18:55;;;;;;;;;;;;;;;40.38;10.42;99659.02;1616420;86;20171;-67
2022/09/02 10:21:54;;;;;;;;;;;;;;;40.66;10.28;99664.66;1616462;87;20148;-66
2022/09/02 10:24:41;;;;;;;;;;;;;;;40.84;10.12;99656.66;1610536;87;20859;-66
2022/09/02 10:27:10;;;;;;;;;;;;;;;40.76;10.22;99659.66;1616428;86;20120;-66
2022/09/02 10:29:51;;;;;;;;;;;;;;;40.76;9.95;99659.07;1623206;86;21347;-66
2022/09/02 10:32:30;;;;;;;;;;;;;;;40.35;10.30;99659.73;1618242;86;20486;-66
2022/09/02 10:35:30;;;;;;;;;;;;;;;40.29;10.46;99668.14;1609782;87;20480;-65
2022/09/02 10:38:09;;;;;;;;;;;;;;;40.34;9.95;99673.43;1615256;87;20132;-67
2022/09/02 10:40:42;;;;;;;;;;;;;;;40.13;9.98;99668.17;1608604;86;20141;-67
2022/09/02 10:43:12;;;;;;;;;;;;;;;40.60;10.11;99659.72;1616477;87;21238;-67
2022/09/02 10:45:45;;;;;;;;;;;;;;;41.05;9.70;99666.88;1625223;86;20097;-67
2022/09/02 10:48:30;;;;;;;;;;;;;;;41.19;9.59;99658.80;1617956;86;20084;-67
2022/09/02 10:51:05;;;;;;;;;;;;;;;41.24;9.67;99662.68;1616466;86;20180;-68
2022/09/02 10:53:53;;;;;;;;;;;;;;;41.11;9.53;99660.42;1615334;86;20104;-67
2022/09/02 10:56:25;;;;;;;;;;;;;;;40.57;9.56;99661.25;1615590;87;21838;-66
2022/09/02 10:59:12;;;;;;;;;;;;;;;39.10;10.33;99656.86;1621774;86;20124;-66
2022/09/02 11:01:54;;;;;;;;;;;;;;;38.30;10.99;99663.78;1625418;86;20124;-66
2022/09/02 11:04:41;;;;;;;;;;;;;;;38.10;11.19;99671.65;1626190;86;20160;-66
2022/09/02 11:07:09;;;;;;;;;;;;;;;37.98;11.32;99667.50;1611146;86;20167;-67
2022/09/02 11:09:38;;;;;;;;;;;;;;;37.51;11.76;99670.66;1616359;86;21143;-66
2022/09/02 11:12:09;;;;;;;;;;;;;;;36.83;12.04;99660.20;1619691;86;20433;-66
2022/09/02 11:14:43;;;;;;;;;;;;;;;36.06;12.64;99660.13;1616318;86;20144;-67
2022/09/02 11:17:20;;;;;;;;;;;;;;;35.35;13.13;99665.39;1618772;86;20089;-66
2022/09/02 11:19:50;;;;;;;;;;;;;;;34.72;13.48;99662.53;1616495;86;20184;-68
2022/09/02 11:22:20;;;;;;;;;;;;;;;34.10;13.93;99659.95;1616475;86;21281;-65
2022/09/02 11:24:53;;;;;;;;;;;;;;;33.40;14.26;99664.63;1616509;86;20155;-65
2022/09/02 11:27:26;;;;;;;;;;;;;;;32.69;14.84;99669.14;1616750;87;20131;-66
2022/09/02 11:29:56;;;;;;;;;;;;;;;32.10;15.45;99666.56;1613578;87;20173;-67
2022/09/02 11:32:26;;;;;;;;;;;;;;;31.65;15.82;99667.69;1625460;86;20120;-66
2022/09/02 11:34:54;;;;;;;;;;;;;;;31.22;16.46;99667.64;1619926;86;21277;-64
2022/09/02 11:37:48;;;;;;;;;;;;;;;30.67;16.95;99676.73;1617535;86;20136;-66
2022/09/02 11:40:20;;;;;;;;;;;;;;;30.18;17.35;99669.70;1593880;88;20087;-66
2022/09/02 11:43:14;;;;;;;;;;;;;;;29.69;17.90;99674.64;1596156;88;20841;-65
2022/09/02 11:46:04;;;;;;;;;;;;;;;29.26;18.33;99674.50;1619151;87;20101;-68
2022/09/02 11:49:06;;;;;;;;;;;;;;;28.88;18.67;99671.23;1616818;86;21181;-67
2022/09/02 11:51:36;;;;;;;;;;;;;;;28.55;19.14;99670.62;1601104;88;20529;-65
2022/09/02 11:54:02;;;;;;;;;;;;;;;28.21;19.61;99666.97;1579468;88;20466;-66
2022/09/02 11:56:42;;;;;;;;;;;;;;;28.00;19.80;99667.58;1583803;88;20208;-66
2022/09/02 11:59:20;;;;;;;;;;;;;;;27.81;20.01;99665.17;1585150;88;20140;-65
2022/09/02 12:01:52;;;;;;;;;;;;;;;27.54;20.34;99658.67;1583873;88;21144;-68
2022/09/02 12:04:24;;;;;;;;;;;;;;;27.33;20.66;99659.23;1593571;88;20456;-66
2022/09/02 12:07:07;;;;;;;;;;;;;;;27.16;20.39;99657.34;1582069;88;20141;-66
2022/09/02 12:09:45;;;;;;;;;;;;;;;26.58;20.79;99651.81;1583674;88;20117;-66
2022/09/02 12:12:40;;;;;;;;;;;;;;;26.25;21.39;99653.65;1580571;89;20467;-66
2022/09/02 12:15:15;;;;;;;;;;;;;;;26.13;21.28;99662.58;1595656;88;21424;-67
2022/09/02 12:17:52;;;;;;;;;;;;;;;25.91;21.07;99661.39;1596153;88;20095;-65
2022/09/02 12:20:41;;;;;;;;;;;;;;;25.65;21.19;99653.61;1589641;88;20156;-66
2022/09/02 12:23:12;;;;;;;;;;;;;;;25.41;21.35;99663.78;1590291;90;20103;-66
2022/09/02 12:25:47;;;;;;;;;;;;;;;24.83;21.94;99660.06;1569579;89;20132;-65
2022/09/02 12:28:25;;;;;;;;;;;;;;;24.44;22.50;99659.38;1577144;89;21194;-64
2022/09/02 12:31:06;;;;;;;;;;;;;;;24.17;22.90;99657.72;1574323;89;20097;-68
2022/09/02 12:33:39;;;;;;;;;;;;;;;23.96;23.65;99655.23;1577080;89;20129;-65
2022/09/02 12:36:06;;;;;;;;;;;;;;;23.93;24.00;99652.48;1577069;89;20134;-68
2022/09/02 12:38:39;;;;;;;;;;;;;;;23.98;23.96;99652.28;1577305;89;20153;-66
2022/09/02 12:41:12;;;;;;;;;;;;;;;24.01;24.09;99645.81;1581148;89;20726;-65
2022/09/02 12:44:02;;;;;;;;;;;;;;;24.09;24.21;99650.80;1586883;87;20108;-65
2022/09/02 12:46:56;;;;;;;;;;;;;;;24.01;24.41;99645.81;1585020;87;20113;-68
2022/09/02 12:49:44;;;;;;;;;;;;;;;23.62;24.35;99639.58;1589336;89;20511;-66
2022/09/02 12:52:12;;;;;;;;;;;;;;;23.27;24.88;99638.52;1573278;87;20120;-67
2022/09/02 12:54:47;;;;;;;;;;;;;;;;;;1581003;89;21252;-64
2022/09/02 12:57:15;;;;;;;;;;;;;;;23.25;24.87;99642.03;1583174;87;20245;-65
2022/09/02 12:59:43;;;;;;;;;;;;;;;23.24;24.84;99640.90;1592024;89;20124;-66
2022/09/02 13:02:14;;;;;;;;;;;;;;;23.21;25.09;99640.86;1580851;89;20105;-64
2022/09/02 13:04:47;;;;;;;;;;;;;;;23.24;25.24;99632.77;1583859;89;20137;-65
2022/09/02 13:07:45;;;;;;;;;;;;;;;23.29;25.13;99636.91;1595778;89;21256;-65
2022/09/02 13:10:34;;;;;;;;;;;;;;;23.30;25.29;99627.17;1583732;89;20125;-66